Jefferson Park, New York
Current Conditions -  °F | °C
As of 3:56 AM on Saturday 22 Nov 2014 (Local Time) from KART Reporting Station
Overcast Overcast  
Wind Chill: -8°   Ceiling: 2300
Heat Index: -2°   Visibility: 10mi
Dew Point: -9°   Wind: 14mph
Humidity: 58%   Direction: 190°S
Pressure: 30.3"   Gusts: 26mph
Location:  43.8534°N, 76.251°W
Report Text: KART 220856Z AUTO 19012G23KT 10SM OVC023 M02/M09 A3030 RMK AO2 SLP266 60000 T10221094 58015
Loading
Personal Weather Stations






























Interactive Weather Map New forecast layout! Learn more

10-Day Weather Forecast

Advertisements
Track Severe Weather on mobile